KNMI Weerbulletins

Hier vind u de KMNI verwachtingen en de waarnemingen

Bron: KNMI website
Laatste update op 23-02-2018 om 19:16
ZCZC
FBNL50 EHDB 231353
WEERBULLETIN VOOR DE LUCHTVAART
.
GELDIG 231500/232100 UTC
.
SITUATIE: AAN DE ZUIDWESTFLANK VAN EEN OMVANGRIJK HOGEDRUKGEBIED
BOVEN SCANDINAVIE VOERT EEN OOSTELIJKE STROMING CONTINENTAAL POLAIRE
LUCHT AAN. DE OPBOUW IS AANVANKELIJK NOG ONSTABIEL TOT MAXIMAAL 5000
VT.
.
SIGNIFICANT WEER: GEEN SIGNIFICANT WEER.
.
WIND: OOST TOT NOORDOOST 10-15 KN, LANGS DE KUST EN BOVEN HET
IJSSELMEER 18-23 KN.
.
BEWOLKING: VOORAL IN HET NOORDEN FEW/SCT CU 3000-4000 VT, TOPPEN
MAXIMAAL 5000 VT, SPOEDIG OPLOSSEND.
.
ZICHT: MEER DAN 10 KM.
.
NULGRADEN NIVEAU: ROND 1000 VT, OVERAL DALEND TOT AAN DE GROND.
.
HOOGTEWINDEN EN TEMPERATUREN:
       15 UTC:    21 UTC:
0500VT 080/20 +01 080/25 -02
1500VT 080/20 -02 090/35 -04
3000VT 080/25 -06 110/35 -04
FL 050 100/30 -05 100/30 -04
FL 100 090/25 -08 090/15 -06
HOOGSTE WINDSNELHEDEN BOVEN DE ZUIDELIJKE HELFT.
.
THERMIEK: ZWAK, LOKAAL MOGELIJK MATIG, SPOEDIG UITDOVEND.
.
VOORUITZICHTEN VOOR MORGEN: EEN STEVIGE OOSTELIJKE STROMING VOERT
CONTINENTAAL POLAIRE LUCHT AAN. GOEDE VFR-CONDITIES.
.
DAGLICHTPERIODE: 06.24 TOT 17.24 UTC.=
NNNN
Bron: KNMI website
Laatste update op 23-02-2018 om 19:16
ZCZC
FT231100 EHEH     EINDHOVEN/EINDHOVEN   NLD   22 m.
TAF EHEH 231130Z 2312/2418 06013G23KT 9999 FEW030
    BECMG 2316/2318 07010KT
    BECMG 2412/2414 08015G27KT=
ZCZC
FC231300 EHGR     GILZE-RIJEN/GILZE-RIJEN   NLD   14 m.
TAF EHGR 231300Z NIL=
ZCZC
FC231300 EHLW     LEEUWARDEN/LEEUWARDEN   NLD   1 m.
TAF EHLW 231332Z 2314/2402 09013KT 9999 FEW025 BKN200=
ZCZC
FC231300 EHVK     VOLKEL/VOLKEL   NLD   21 m.
TAF EHVK 231300Z NIL=
ZCZC
FC231300 EHWO     WOENSDRECHT/WOENSDRECHT   NLD   19 m.
TAF EHWO 231300Z NIL=
ZCZC
FC231400 EHKD     DE KOOY/DE KOOY   NLD   1 m.
TAF EHKD 231328Z 2314/2402 08015KT 9999 FEW025 BKN200=
ZCZC
FT231700 EHAM     AMSTERDAM/SCHIPHOL   NLD   -3 m.
TAF EHAM 231706Z 2318/2424 08014KT 9999 FEW025
    BECMG 2408/2410 09015G25KT
    BECMG 2419/2422 09012KT=
ZCZC
FT231700 EHBK     MAASTRICHT/MAASTRICHT-AACHEN   NLD   114 m.
TAF EHBK 231701Z 2318/2424 07013KT CAVOK
    TEMPO 2409/2421 08016G26KT=
ZCZC
FT231700 EHGG     GRONINGEN/EELDE   NLD   5 m.
TAF EHGG 231701Z 2318/2424 08011KT CAVOK=
ZCZC
FT231700 EHRD     ROTTERDAM/THE HAGUE AIRPORT   NLD   -5 m.
TAF EHRD 231707Z 2318/2424 08014KT 9999 FEW025
    BECMG 2408/2410 09015G25KT
    BECMG 2419/2422 09012KT=
Bron: KNMI website
Laatste update op 23-02-2018 om 19:16
ZCZC
SA231755 EHFD     F3-FB-1   NLD   50 m.
METAR EHFD 231755Z AUTO 10020KT 9999 FEW022/// 02/M03 Q1026 W///H///=
ZCZC
SA231755 EHAM     AMSTERDAM/SCHIPHOL   NLD   -3 m.
METAR EHAM 231755Z 08011KT 040V120 CAVOK 01/M06 Q1022 NOSIG=
ZCZC
SA231755 EHVL     VLIELAND   NLD   10 m.
METAR EHVL 231755Z AUTO 08020KT 9999 NCD 00/M04 Q1024 BLU=
ZCZC
SA231755 EHJR     K13-A   NLD   37 m.
METAR EHJR 231755Z AUTO 10022KT //// // ///////// 02/M03 Q1023 RE//
W06/H14=
ZCZC
SA231755 EHLW     LEEUWARDEN/LEEUWARDEN   NLD   1 m.
METAR EHLW 231755Z AUTO 07011KT 010V110 9999 NCD M01/M05 Q1025 BLU=
ZCZC
SA231755 EHDL     ARNHEM/DEELEN   NLD   48 m.
METAR EHDL 231755Z AUTO 07011KT 010V130 9999 BKN220 00/M07 Q1022 BLU=
ZCZC
SA231755 EHGG     GRONINGEN/EELDE   NLD   5 m.
METAR EHGG 231755Z AUTO 07009KT 050V110 9999 NSC M01/M06 Q1025 NOSIG=
ZCZC
SA231755 EHSC     LICHTEILAND GOEREE   NLD   22 m.
METAR EHSC 231755Z AUTO 08023KT 9999 ///////// 03/M05 Q1020 W05/H10=
ZCZC
SA231755 EHSA     EURO PLATFORM   NLD   19 m.
METAR EHSA 231755Z AUTO 06023KT 9999 ///////// 03/M04 Q1021 W06/H15=
ZCZC
SA231755 EHWO     WOENSDRECHT/WOENSDRECHT   NLD   19 m.
METAR EHWO 231755Z AUTO 07010KT 9999 NCD M00/M07 Q1020 BLU=
ZCZC
SA231755 EHRD     ROTTERDAM/THE HAGUE AIRPORT   NLD   -5 m.
METAR EHRD 231755Z AUTO 08013KT 050V110 9999 NCD 01/M06 Q1021 NOSIG=
ZCZC
SA231755 EHGR     GILZE-RIJEN/GILZE-RIJEN   NLD   14 m.
METAR EHGR 231755Z AUTO 07011KT 030V110 9999 NCD 01/M07 Q1021 BLU=
ZCZC
SA231755 EHVK     VOLKEL/VOLKEL   NLD   21 m.
METAR EHVK 231755Z AUTO 07012KT 040V100 9999 NCD 00/M07 Q1021 BLU=
ZCZC
SA231755 EHBK     MAASTRICHT/MAASTRICHT-AACHEN   NLD   114 m.
METAR EHBK 231755Z AUTO 05014KT 9999 NCD 00/M08 Q1019 NOSIG=
ZCZC
SA231755 EHFZ     F16-A   NLD   43 m.
METAR EHFZ 231755Z AUTO 10018KT 9999 NCD 02/M04 Q1025 W///H///=
ZCZC
SA231755 EHKV     K14-FA-1C   NLD   41 m.
METAR EHKV 231755Z AUTO 08025KT 9999 FEW020 02/M03 Q1023 W///H///=
ZCZC
SA231755 EHMG     L9-FF-1   NLD   44 m.
METAR EHMG 231755Z AUTO 09027KT 9999 NCD 02/M04 Q1024 W///H///=
ZCZC
SA231755 EHMA     AWG-1   NLD   40 m.
METAR EHMA 231755Z AUTO 10017KT 040V130 9999 NCD 02/M05 Q1025
W///H///=
ZCZC
SA231755 EHDV     D15-FA-1   NLD   42 m.
METAR EHDV 231755Z AUTO 10022KT 9999 SCT021/// 03/M02 Q1025 W///H///=
ZCZC
SA231755 EHAK     A12-CPP   NLD   48 m.
METAR EHAK 231755Z AUTO 13010KT 080V190 9999 FEW023/// 03/M04 Q1027
W///H///=
ZCZC
SA231755 EHQE     HOORN-A   NLD   50 m.
METAR EHQE 231755Z AUTO 05024KT 9999 NSC 02/M04 Q1023 W///H///=
ZCZC
SA231755 EHJA     J6-A   NLD   45 m.
METAR EHJA 231755Z AUTO 08025KT 9999 SCT019/// 03/M03 Q1024 W///H///=
ZCZC
SA231755 EHPG     P11-B   NLD   41 m.
METAR EHPG 231755Z AUTO 06028KT 9999 NSC 03/M03 Q1021 W///H///=
ZCZC
SA231755 EHHW     BUITENGAATS/BG-OHVS2      42 m.
METAR EHHW 231755Z AUTO 11022KT 9999 ///////// 02/M04 Q1026 W///H///=
ZCZC
SA231755 EHKD CCB DE KOOY/DE KOOY   NLD   1 m.
METAR COR EHKD 231755Z AUTO 07016KT 9999 NSC 01/M04 Q1023
BLU 08014KT CAVOK=
ZCZC
SA231755 EHFS     VLISSINGEN AWS   NLD   8 m.
METAR EHFS 231755Z AUTO 07014KT 9999 NCD 02/M05 Q1020 W///H///=
ZCZC
SA231755 EHEH CCB EINDHOVEN/EINDHOVEN   NLD   22 m.
METAR COR EHEH 231755Z AUTO 06010KT 020V080 9999 NSC 01/M07 Q1021
BLU 07013KT CAVOK TEMPO 07015G25KT=